Time;durP1;ratioP1;P1;durP2;ratioP2;P2;SDS_P1;SDS_P2;PMS_P1;PMS_P2;Temp;Humidity;BMP_temperature;BMP_pressure;BME280_temperature;BME280_humidity;BME280_pressure;Samples;Min_cycle;Max_cycle;Signal;HPM_P1;HPM_P2
2021/04/13 00:01:11;;;;;;;18.63;11.25;;;2.00;83.20;;;;;;5093948;28;20027;-37
2021/04/13 00:03:43;;;;;;;16.10;10.80;;;2.00;83.40;;;;;;5093867;28;20035;-36
2021/04/13 00:06:51;;;;;;;17.38;11.93;;;2.00;83.30;;;;;;5093863;28;20069;-36
2021/04/13 00:09:21;;;;;;;20.65;11.85;;;2.10;83.10;;;;;;5092095;28;20040;-35
2021/04/13 00:11:50;;;;;;;19.85;11.05;;;2.10;82.80;;;;;;5091852;28;20028;-36
2021/04/13 00:14:23;;;;;;;23.15;12.57;;;2.10;82.80;;;;;;5093108;28;20052;-36
2021/04/13 00:16:49;;;;;;;16.27;11.80;;;2.00;83.10;;;;;;5094277;28;20028;-36
2021/04/13 00:19:22;;;;;;;18.10;11.25;;;1.90;83.00;;;;;;5094235;28;20038;-36
2021/04/13 00:21:49;;;;;;;18.27;10.77;;;1.90;83.00;;;;;;5094041;28;20379;-38
2021/04/13 00:24:19;;;;;;;19.33;11.57;;;1.80;83.00;;;;;;5092523;28;20024;-36
2021/04/13 00:26:50;;;;;;;13.73;10.52;;;1.80;83.20;;;;;;5093485;28;20095;-36
2021/04/13 00:29:28;;;;;;;17.60;12.15;;;1.80;83.00;;;;;;5093586;28;20422;-36
2021/04/13 00:31:59;;;;;;;22.00;10.38;;;1.90;82.90;;;;;;5093904;28;20372;-37
2021/04/13 00:34:43;;;;;;;17.77;10.93;;;1.90;82.70;;;;;;5093791;28;20472;-36
2021/04/13 00:37:23;;;;;;;16.60;10.55;;;1.80;82.80;;;;;;5093450;28;20023;-36
2021/04/13 00:39:54;;;;;;;17.35;10.23;;;1.80;82.80;;;;;;5093848;28;20020;-37
2021/04/13 00:42:28;;;;;;;18.23;10.30;;;1.80;82.80;;;;;;5093330;28;20028;-37
2021/04/13 00:44:59;;;;;;;19.83;11.30;;;1.70;83.00;;;;;;5092281;28;20490;-35
2021/04/13 00:47:30;;;;;;;19.55;10.63;;;1.70;83.10;;;;;;5093285;28;20496;-35
2021/04/13 00:49:59;;;;;;;24.23;12.07;;;1.70;83.40;;;;;;5093567;28;20468;-35
2021/04/13 00:52:53;;;;;;;17.33;11.38;;;1.60;83.50;;;;;;5093630;28;20098;-35
2021/04/13 00:55:22;;;;;;;19.35;10.98;;;1.60;83.70;;;;;;5093524;28;20091;-35
2021/04/13 00:58:04;;;;;;;15.13;10.82;;;1.50;84.00;;;;;;5093500;28;20447;-35
2021/04/13 01:00:36;;;;;;;21.38;11.45;;;1.50;83.80;;;;;;5091691;28;20024;-36
2021/04/13 01:03:03;;;;;;;22.75;12.40;;;1.50;83.80;;;;;;5092893;28;20035;-36
2021/04/13 01:05:53;;;;;;;17.80;11.50;;;1.50;83.90;;;;;;5093155;28;20053;-36
2021/04/13 01:08:33;;;;;;;22.27;11.40;;;1.50;83.80;;;;;;5093182;28;20376;-36
2021/04/13 01:11:14;;;;;;;23.50;12.57;;;1.40;83.60;;;;;;5092845;28;20270;-36
2021/04/13 01:13:45;;;;;;;14.90;10.43;;;1.40;83.60;;;;;;5092867;28;20016;-36
2021/04/13 01:16:12;;;;;;;17.25;10.88;;;1.40;83.60;;;;;;5092988;28;20032;-36
2021/04/13 01:18:40;;;;;;;21.58;9.52;;;1.50;83.40;;;;;;5093000;28;20032;-36
2021/04/13 01:21:24;;;;;;;17.90;10.63;;;1.50;83.10;;;;;;5093092;28;20421;-36
2021/04/13 01:23:59;;;;;;;17.00;10.10;;;1.40;83.20;;;;;;5093123;28;20020;-36
2021/04/13 01:26:34;;;;;;;17.27;10.43;;;1.40;83.20;;;;;;5092821;28;20476;-36
2021/04/13 01:29:02;;;;;;;16.80;10.45;;;1.40;83.00;;;;;;5091645;28;20031;-36
2021/04/13 01:34:39;;;;;;;16.35;8.90;;;1.50;82.50;;;;;;5093063;28;20095;-36
2021/04/13 01:37:30;;;;;;;17.73;10.80;;;1.60;82.00;;;;;;5092313;28;20119;-36
2021/04/13 01:40:16;;;;;;;;;;;1.50;82.10;;;;;;5093667;28;20114;-36
2021/04/13 01:42:43;;;;;;;16.77;10.13;;;1.50;82.00;;;;;;5092918;28;19950;-36
2021/04/13 01:45:13;;;;;;;17.88;10.48;;;1.40;82.40;;;;;;5091576;28;20033;-36
2021/04/13 01:47:40;;;;;;;;;;;1.30;82.70;;;;;;5093071;28;20063;-36
2021/04/13 01:50:08;;;;;;;14.98;8.85;;;1.30;82.60;;;;;;5091545;28;20416;-36
2021/04/13 01:52:36;;;;;;;15.55;9.98;;;1.30;82.70;;;;;;5092743;28;20063;-36
2021/04/13 01:55:10;;;;;;;22.35;11.60;;;1.40;82.80;;;;;;5094166;28;20027;-36
2021/04/13 01:58:08;;;;;;;16.58;10.27;;;1.30;83.00;;;;;;5096554;28;20063;-36
2021/04/13 02:00:48;;;;;;;17.75;10.52;;;1.30;83.20;;;;;;5088177;28;20126;-37
2021/04/13 02:03:18;;;;;;;17.80;11.55;;;1.20;83.40;;;;;;5096235;28;20107;-36
2021/04/13 02:05:49;;;;;;;21.00;11.70;;;1.20;83.50;;;;;;5096567;28;20024;-36
2021/04/13 02:08:22;;;;;;;24.88;11.43;;;1.10;83.80;;;;;;5096298;28;20032;-36
2021/04/13 02:10:56;;;;;;;22.55;10.70;;;1.00;84.10;;;;;;5096392;28;20024;-36
2021/04/13 02:13:34;;;;;;;19.10;11.05;;;0.90;84.70;;;;;;5094878;28;20384;-36
2021/04/13 02:16:22;;;;;;;18.17;12.07;;;0.80;84.90;;;;;;5095161;28;20379;-36
2021/04/13 02:18:51;;;;;;;21.98;12.10;;;0.90;84.70;;;;;;5096048;28;20419;-36
2021/04/13 02:21:29;;;;;;;23.55;11.65;;;1.00;84.40;;;;;;5096102;28;20101;-36
2021/04/13 02:24:01;;;;;;;17.35;11.93;;;0.90;84.60;;;;;;5096218;28;20107;-36
2021/04/13 02:26:28;;;;;;;21.20;12.93;;;0.90;84.60;;;;;;5095611;28;20027;-36
2021/04/13 02:28:55;;;;;;;23.27;13.82;;;1.00;84.30;;;;;;5095693;28;20024;-36
2021/04/13 02:31:36;;;;;;;21.52;12.60;;;1.00;84.40;;;;;;5095732;28;20020;-36
2021/04/13 02:34:12;;;;;;;;;;;0.90;84.50;;;;;;5096376;28;20026;-37
2021/04/13 02:36:39;;;;;;;26.73;11.80;;;1.00;84.60;;;;;;5095951;28;20359;-36
2021/04/13 02:39:07;;;;;;;17.08;11.32;;;1.10;84.60;;;;;;5095904;28;20383;-36
2021/04/13 02:41:40;;;;;;;16.27;11.45;;;0.90;84.80;;;;;;5094301;28;20035;-36
2021/04/13 02:44:10;;;;;;;18.75;11.35;;;0.80;85.50;;;;;;5094261;28;20028;-36
2021/04/13 02:46:37;;;;;;;20.35;12.73;;;0.80;85.60;;;;;;5095520;28;20028;-36
2021/04/13 02:49:12;;;;;;;21.30;11.85;;;0.80;85.80;;;;;;5095513;28;20360;-36
2021/04/13 02:51:46;;;;;;;24.15;12.27;;;0.70;85.90;;;;;;5095630;28;20017;-36
2021/04/13 02:54:22;;;;;;;24.15;11.48;;;0.70;85.80;;;;;;5095798;28;20034;-36
2021/04/13 02:56:50;;;;;;;18.00;11.25;;;0.70;86.20;;;;;;5095210;28;20021;-36
2021/04/13 02:59:16;;;;;;;22.92;12.25;;;0.70;86.30;;;;;;5095125;28;20028;-36
2021/04/13 03:01:54;;;;;;;17.73;11.80;;;0.80;86.00;;;;;;5095307;28;20022;-36
2021/04/13 03:04:21;;;;;;;22.15;10.70;;;1.00;85.80;;;;;;5093852;28;20031;-36
2021/04/13 03:06:50;;;;;;;13.82;10.48;;;1.00;85.30;;;;;;5095261;28;20027;-36
2021/04/13 03:09:18;;;;;;;26.30;10.68;;;1.10;85.10;;;;;;5095001;28;20435;-36
2021/04/13 03:11:47;;;;;;;14.57;9.25;;;1.30;85.00;;;;;;5094969;28;20012;-36
2021/04/13 03:14:15;;;;;;;17.58;9.82;;;1.20;84.50;;;;;;5095173;28;20100;-36
2021/04/13 03:16:45;;;;;;;17.75;10.57;;;1.30;84.60;;;;;;5095066;28;20464;-36
2021/04/13 03:19:13;;;;;;;19.02;10.00;;;1.30;84.30;;;;;;5095103;28;20035;-36
2021/04/13 03:21:48;;;;;;;18.45;9.93;;;1.00;84.70;;;;;;5093579;28;20476;-36
2021/04/13 03:24:17;;;;;;;20.23;10.18;;;1.00;85.40;;;;;;5095082;28;20054;-36
2021/04/13 03:26:49;;;;;;;20.80;11.55;;;1.00;85.20;;;;;;5094693;28;20020;-36
2021/04/13 03:29:38;;;;;;;19.55;9.85;;;0.90;85.40;;;;;;5094904;28;20597;-36
2021/04/13 03:32:06;;;;;;;13.45;9.02;;;0.90;85.40;;;;;;5094907;28;20012;-36
2021/04/13 03:34:32;;;;;;;19.48;9.43;;;1.10;85.20;;;;;;5094764;28;20028;-36
2021/04/13 03:36:59;;;;;;;20.30;10.80;;;1.00;84.80;;;;;;5094502;28;20016;-36
2021/04/13 03:39:35;;;;;;;18.50;10.48;;;1.00;85.50;;;;;;5094447;28;20039;-36
2021/04/13 03:42:03;;;;;;;20.00;10.77;;;0.90;85.30;;;;;;5094672;28;20030;-36
2021/04/13 03:44:28;;;;;;;15.65;9.75;;;0.90;85.50;;;;;;5094623;28;20024;-36
2021/04/13 03:46:56;;;;;;;25.70;12.52;;;0.90;85.60;;;;;;5094001;28;20392;-36
2021/04/13 03:49:34;;;;;;;17.85;10.20;;;0.90;85.70;;;;;;5094158;28;20020;-36
2021/04/13 03:52:05;;;;;;;18.50;11.70;;;0.90;85.70;;;;;;5094311;28;20023;-36
2021/04/13 03:54:35;;;;;;;20.92;10.95;;;0.90;85.70;;;;;;5093931;28;20531;-36
2021/04/13 03:57:02;;;;;;;21.73;11.55;;;1.00;85.40;;;;;;5093975;28;20024;-36
2021/04/13 03:59:35;;;;;;;24.23;10.90;;;1.00;86.10;;;;;;5094090;28;20020;-36
2021/04/13 04:02:00;;;;;;;21.33;11.52;;;1.20;85.00;;;;;;5094230;28;20020;-36
2021/04/13 04:04:32;;;;;;;19.25;9.82;;;1.20;84.70;;;;;;5094013;28;20122;-36
2021/04/13 04:07:28;;;;;;;24.83;12.38;;;1.30;84.50;;;;;;5094050;28;20020;-36
2021/04/13 04:09:54;;;;;;;16.00;11.82;;;1.30;84.30;;;;;;5092562;28;20043;-36
2021/04/13 04:12:31;;;;;;;20.50;10.35;;;1.20;84.00;;;;;;5094164;28;20457;-36
2021/04/13 04:15:11;;;;;;;18.65;10.93;;;1.20;84.70;;;;;;5093768;28;20054;-36
2021/04/13 04:17:45;;;;;;;18.63;10.10;;;1.00;84.90;;;;;;5093283;28;20110;-35
2021/04/13 04:20:12;;;;;;;18.77;10.45;;;1.10;84.80;;;;;;5093945;28;20052;-36
2021/04/13 04:22:50;;;;;;;18.10;10.70;;;1.00;84.90;;;;;;5093943;28;20036;-36
2021/04/13 04:25:34;;;;;;;20.27;11.35;;;1.10;85.00;;;;;;5093988;28;20042;-36
2021/04/13 04:28:07;;;;;;;20.20;12.77;;;1.00;85.20;;;;;;5093747;28;20036;-36
2021/04/13 04:30:34;;;;;;;20.92;10.98;;;1.20;84.80;;;;;;5092212;28;20054;-36
2021/04/13 04:33:02;;;;;;;20.60;11.27;;;1.10;84.70;;;;;;5093488;28;20028;-36
2021/04/13 04:35:44;;;;;;;18.92;11.57;;;1.10;84.80;;;;;;5093382;28;20024;-36
2021/04/13 04:38:30;;;;;;;17.92;11.25;;;1.10;84.90;;;;;;5093699;28;20026;-36
2021/04/13 04:40:56;;;;;;;21.38;11.15;;;1.00;85.00;;;;;;5093713;28;20036;-36
2021/04/13 04:43:46;;;;;;;23.00;11.35;;;1.00;85.10;;;;;;5093454;28;20537;-36
2021/04/13 04:46:33;;;;;;;22.20;11.43;;;1.00;84.90;;;;;;5093573;28;20053;-36
2021/04/13 04:49:02;;;;;;;18.85;11.07;;;1.10;84.80;;;;;;5091952;28;20127;-36
2021/04/13 04:51:28;;;;;;;21.27;12.18;;;1.00;85.40;;;;;;5093236;28;20044;-36
2021/04/13 04:53:53;;;;;;;24.02;11.70;;;1.20;84.80;;;;;;5093514;28;20036;-36
2021/04/13 04:56:19;;;;;;;18.65;10.82;;;1.30;84.50;;;;;;5093092;28;20020;-36
2021/04/13 04:58:44;;;;;;;21.60;10.68;;;1.30;84.00;;;;;;5093379;28;20032;-36
2021/04/13 05:01:10;;;;;;;17.88;9.82;;;1.20;84.60;;;;;;5093842;28;20427;-36
2021/04/13 05:03:36;;;;;;;15.50;9.80;;;1.00;85.10;;;;;;5093378;28;20042;-36
2021/04/13 05:06:02;;;;;;;24.42;11.05;;;0.90;85.70;;;;;;5094276;28;20401;-36
2021/04/13 05:08:27;;;;;;;17.17;10.10;;;1.00;85.60;;;;;;5093183;28;20051;-36
2021/04/13 05:10:53;;;;;;;16.67;10.25;;;1.00;85.60;;;;;;5092952;28;20426;-36
2021/04/13 05:13:20;;;;;;;15.25;10.05;;;1.00;85.50;;;;;;5093287;28;20020;-36
2021/04/13 05:15:47;;;;;;;25.15;11.73;;;1.00;85.60;;;;;;5093278;28;20024;-36
2021/04/13 05:18:13;;;;;;;22.73;12.23;;;1.30;85.00;;;;;;5091426;28;20035;-36
2021/04/13 05:20:39;;;;;;;17.67;10.15;;;1.40;84.60;;;;;;5093146;28;20028;-36
2021/04/13 05:23:05;;;;;;;18.08;10.05;;;1.40;84.10;;;;;;5093157;28;20034;-36
2021/04/13 05:25:30;;;;;;;14.00;10.02;;;1.60;84.80;;;;;;5093132;28;20020;-36
2021/04/13 05:27:56;;;;;;;17.20;10.18;;;1.70;83.40;;;;;;5092867;28;20383;-36
2021/04/13 05:30:23;;;;;;;20.95;10.90;;;1.70;83.00;;;;;;5094721;28;20490;-36
2021/04/13 05:32:49;;;;;;;14.77;10.73;;;1.90;82.80;;;;;;5096610;28;20027;-36
2021/04/13 05:35:17;;;;;;;18.50;10.52;;;1.90;82.20;;;;;;5096928;28;20112;-36
2021/04/13 05:37:43;;;;;;;16.00;8.90;;;1.80;82.50;;;;;;5096486;28;20107;-36
2021/04/13 05:40:17;;;;;;;19.85;10.00;;;1.70;82.90;;;;;;5096559;28;20111;-37
2021/04/13 05:42:44;;;;;;;17.05;8.68;;;1.80;82.90;;;;;;5096704;28;20023;-36
2021/04/13 05:45:14;;;;;;;17.52;9.27;;;1.80;82.90;;;;;;5096251;28;20055;-37
2021/04/13 05:47:41;;;;;;;17.08;9.43;;;1.70;83.60;;;;;;5096192;28;20127;-36
2021/04/13 05:50:11;;;;;;;16.90;10.98;;;1.70;83.90;;;;;;5096266;28;20020;-36
2021/04/13 05:52:37;;;;;;;14.80;10.25;;;1.70;84.50;;;;;;5097564;28;20032;-36
2021/04/13 05:55:03;;;;;;;19.83;10.07;;;1.90;83.40;;;;;;5096546;28;20098;-36
2021/04/13 05:57:31;;;;;;;20.58;10.77;;;1.80;83.60;;;;;;5094894;28;20020;-36
2021/04/13 05:59:59;;;;;;;13.90;8.82;;;1.90;83.40;;;;;;5096039;28;20032;-37
2021/04/13 06:02:25;;;;;;;16.38;9.70;;;1.90;83.10;;;;;;5096105;28;20031;-37
2021/04/13 06:04:53;;;;;;;19.30;10.68;;;1.90;83.30;;;;;;5096003;28;20028;-36
2021/04/13 06:07:19;;;;;;;19.77;12.38;;;2.20;82.90;;;;;;5095904;28;20028;-36
2021/04/13 06:09:45;;;;;;;27.23;10.38;;;2.30;82.50;;;;;;5095820;28;20028;-36
2021/04/13 06:12:11;;;;;;;17.35;10.05;;;2.40;82.30;;;;;;5095605;28;20464;-36
2021/04/13 06:14:37;;;;;;;19.02;9.95;;;2.30;82.60;;;;;;5095691;28;20032;-36
2021/04/13 06:17:03;;;;;;;17.25;9.68;;;2.60;82.30;;;;;;5095848;28;20377;-36
2021/04/13 06:19:30;;;;;;;15.70;10.10;;;2.50;82.10;;;;;;5095931;28;20095;-37
2021/04/13 06:21:56;;;;;;;19.10;10.50;;;2.60;82.20;;;;;;5094876;28;20059;-37
2021/04/13 06:24:22;;;;;;;10.82;7.90;;;2.70;82.00;;;;;;5095411;28;20028;-37
2021/04/13 06:26:48;;;;;;;15.50;8.52;;;2.80;81.80;;;;;;5094028;28;20461;-36
2021/04/13 06:29:13;;;;;;;14.45;7.78;;;2.80;81.90;;;;;;5095775;28;20032;-36
2021/04/13 06:31:39;;;;;;;17.48;8.27;;;3.00;81.50;;;;;;5095298;28;20016;-36
2021/04/13 06:34:04;;;;;;;16.83;8.15;;;3.20;81.00;;;;;;5095657;28;20024;-36
2021/04/13 06:36:31;;;;;;;11.25;7.22;;;3.20;80.80;;;;;;5095612;28;20388;-37
2021/04/13 06:38:59;;;;;;;18.88;8.57;;;3.30;80.70;;;;;;5095427;28;20464;-37
2021/04/13 06:41:27;;;;;;;13.70;6.65;;;3.30;80.30;;;;;;5095015;28;20050;-36
2021/04/13 06:44:23;;;;;;;13.75;8.20;;;3.40;80.30;;;;;;5096265;28;20122;-36
2021/04/13 06:47:26;;;;;;;17.35;8.32;;;3.70;79.30;;;;;;5099711;28;20074;-36
2021/04/13 06:50:03;;;;;;;11.43;6.30;;;3.70;79.30;;;;;;5096651;28;20038;-36
2021/04/13 06:52:51;;;;;;;13.63;5.65;;;3.80;79.00;;;;;;5094525;28;20034;-36
2021/04/13 06:55:23;;;;;;;16.40;6.50;;;4.00;78.50;;;;;;5093932;28;20147;-36
2021/04/13 06:58:08;;;;;;;16.60;5.78;;;3.90;78.40;;;;;;5093728;28;20093;-36
2021/04/13 07:00:59;;;;;;;10.77;5.22;;;4.30;77.80;;;;;;5093599;28;20066;-37
2021/04/13 07:03:30;;;;;;;;;;;4.40;77.00;;;;;;5094977;28;20023;-36
2021/04/13 07:06:20;;;;;;;11.40;5.20;;;4.40;77.00;;;;;;5094211;28;19930;-35
2021/04/13 07:09:23;;;;;;;14.32;4.72;;;4.60;76.90;;;;;;5094880;28;20380;-35
2021/04/13 07:12:23;;;;;;;14.32;5.45;;;4.90;75.50;;;;;;5094374;28;20063;-36
2021/04/13 07:15:02;;;;;;;9.75;4.47;;;4.90;75.10;;;;;;5090100;28;20028;-36
2021/04/13 07:18:01;;;;;;;12.15;4.82;;;5.00;74.70;;;;;;5094462;28;20102;-36
2021/04/13 07:21:05;;;;;;;11.45;4.07;;;5.20;74.40;;;;;;5094610;28;20437;-36
2021/04/13 07:23:43;;;;;;;12.10;4.15;;;5.30;73.40;;;;;;5082402;28;20046;-36
2021/04/13 07:26:30;;;;;;;22.10;3.88;;;5.40;73.30;;;;;;5094645;28;20031;-37
2021/04/13 07:29:13;;;;;;;10.98;3.80;;;6.10;71.60;;;;;;5094484;28;20032;-37
2021/04/13 07:31:56;;;;;;;10.23;4.00;;;6.50;69.70;;;;;;5094628;28;20475;-37
2021/04/13 07:34:22;;;;;;;44.33;7.53;;;6.10;70.40;;;;;;5094385;28;20536;-37
2021/04/13 07:36:59;;;;;;;13.23;3.55;;;5.80;71.70;;;;;;5093919;28;20016;-37
2021/04/13 07:39:25;;;;;;;11.73;3.10;;;5.90;71.80;;;;;;5093841;28;20054;-37
2021/04/13 07:42:03;;;;;;;11.20;3.90;;;6.30;70.90;;;;;;5093679;28;20095;-36
2021/04/13 07:44:35;;;;;;;12.00;3.95;;;6.50;69.80;;;;;;5094008;28;20487;-37
2021/04/13 07:47:18;;;;;;;7.82;4.53;;;6.50;69.90;;;;;;5093047;28;20051;-36
2021/04/13 07:49:52;;;;;;;18.27;5.05;;;6.80;69.10;;;;;;5094065;28;20026;-37
2021/04/13 07:52:48;;;;;;;17.40;4.70;;;6.80;67.80;;;;;;5093441;28;20031;-37
2021/04/13 07:55:35;;;;;;;11.77;5.22;;;6.60;68.70;;;;;;5093748;28;20054;-37
2021/04/13 07:58:37;;;;;;;11.18;2.70;;;6.70;68.20;;;;;;5093394;28;20035;-36
2021/04/13 08:01:06;;;;;;;17.38;5.13;;;6.90;67.60;;;;;;5093785;28;20062;-36
2021/04/13 08:03:33;;;;;;;29.38;5.88;;;6.70;68.30;;;;;;5075370;28;20065;-35
2021/04/13 08:06:02;;;;;;;20.83;3.90;;;7.00;66.70;;;;;;5092399;28;20093;-36
2021/04/13 08:08:27;;;;;;;11.90;2.80;;;7.30;65.80;;;;;;5093498;28;20028;-37
2021/04/13 08:11:16;;;;;;;10.55;3.95;;;7.20;65.60;;;;;;5093536;28;20020;-36
2021/04/13 08:13:45;;;;;;;18.00;3.00;;;7.80;63.50;;;;;;5092522;28;20073;-37
2021/04/13 08:16:29;;;;;;;15.57;4.30;;;7.50;64.90;;;;;;5092237;28;20062;-37
2021/04/13 08:19:17;;;;;;;9.50;3.20;;;8.20;63.10;;;;;;5091980;28;20020;-36
2021/04/13 08:21:43;;;;;;;7.38;2.78;;;8.80;61.20;;;;;;5093413;28;20054;-36
2021/04/13 08:24:37;;;;;;;9.07;2.80;;;9.10;58.90;;;;;;5093264;28;20036;-37
2021/04/13 08:27:24;;;;;;;9.77;4.15;;;9.20;58.90;;;;;;5092778;28;20043;-36
2021/04/13 08:29:53;;;;;;;9.88;2.83;;;9.80;56.60;;;;;;5093392;28;20107;-36
2021/04/13 08:32:52;;;;;;;11.00;2.60;;;9.20;57.90;;;;;;5093684;28;20020;-38
2021/04/13 08:35:20;;;;;;;13.05;2.88;;;9.10;58.70;;;;;;5092986;28;20028;-37
2021/04/13 08:37:52;;;;;;;13.43;2.60;;;9.60;56.40;;;;;;5092601;28;20031;-36
2021/04/13 08:40:26;;;;;;;9.45;3.47;;;9.20;57.00;;;;;;5092606;28;20024;-37
2021/04/13 08:43:00;;;;;;;8.10;2.53;;;9.10;58.00;;;;;;5091457;28;20130;-37
2021/04/13 08:45:46;;;;;;;5.07;1.80;;;9.70;55.10;;;;;;5092504;28;20074;-37
2021/04/13 08:48:24;;;;;;;11.90;3.15;;;9.90;54.00;;;;;;5091265;28;20396;-37
2021/04/13 08:51:10;;;;;;;7.78;2.53;;;9.40;56.00;;;;;;5092864;28;20044;-36
2021/04/13 08:53:42;;;;;;;6.65;2.80;;;8.90;57.10;;;;;;5092669;28;20122;-37
2021/04/13 08:56:26;;;;;;;10.40;2.17;;;8.30;59.70;;;;;;5093039;28;20037;-36
2021/04/13 08:58:54;;;;;;;13.63;2.72;;;7.30;62.40;;;;;;5091460;28;20495;-37
2021/04/13 09:01:22;;;;;;;12.18;3.03;;;7.30;64.10;;;;;;5093165;28;20459;-37
2021/04/13 09:03:48;;;;;;;12.63;3.30;;;7.00;64.50;;;;;;5093695;28;20024;-37
2021/04/13 09:06:38;;;;;;;7.18;2.42;;;7.00;64.50;;;;;;5096777;28;20143;-36
2021/04/13 09:09:08;;;;;;;9.38;2.53;;;7.10;64.00;;;;;;5096015;28;20042;-37
2021/04/13 09:11:53;;;;;;;9.82;2.38;;;7.30;63.20;;;;;;5096962;28;20036;-37
2021/04/13 09:14:28;;;;;;;7.60;2.70;;;8.10;61.20;;;;;;5097503;28;20036;-36
2021/04/13 09:17:12;;;;;;;10.35;2.80;;;9.10;56.80;;;;;;5096990;28;20399;-47
2021/04/13 09:20:10;;;;;;;9.23;3.08;;;9.80;53.90;;;;;;5096564;28;20028;-38
2021/04/13 09:23:08;;;;;;;6.85;2.08;;;9.90;53.30;;;;;;5096843;28;20103;-39
2021/04/13 09:25:54;;;;;;;12.30;2.20;;;10.40;50.70;;;;;;5096397;28;20029;-36
2021/04/13 09:28:25;;;;;;;7.35;1.92;;;11.10;48.60;;;;;;5096162;28;20064;-37
2021/04/13 09:31:11;;;;;;;7.13;2.13;;;10.30;50.40;;;;;;5094850;28;20077;-36
2021/04/13 09:33:43;;;;;;;8.75;1.70;;;10.30;50.60;;;;;;5095761;28;20505;-37
2021/04/13 09:36:39;;;;;;;7.13;2.00;;;9.20;53.40;;;;;;5096102;28;20036;-37
2021/04/13 09:39:23;;;;;;;11.20;1.90;;;8.60;55.60;;;;;;5094984;28;20107;-37
2021/04/13 09:42:08;;;;;;;10.73;2.15;;;8.20;56.90;;;;;;5096676;28;20464;-38
2021/04/13 09:44:36;;;;;;;10.13;1.70;;;7.90;57.60;;;;;;5094888;28;20028;-36
2021/04/13 09:47:18;;;;;;;9.70;1.83;;;8.00;57.60;;;;;;5095529;28;20055;-37
2021/04/13 09:50:21;;;;;;;4.47;1.42;;;9.20;53.30;;;;;;5097054;28;20522;-38
2021/04/13 09:53:16;;;;;;;5.43;1.20;;;10.70;45.80;;;;;;5096444;28;20024;-38
2021/04/13 09:56:18;;;;;;;7.72;1.85;;;11.70;42.90;;;;;;5096169;28;20401;-37
2021/04/13 09:59:21;;;;;;;3.97;1.23;;;13.00;40.60;;;;;;5095831;28;20034;-37
2021/04/13 10:02:05;;;;;;;11.43;2.28;;;14.20;36.80;;;;;;5094460;28;20035;-37
2021/04/13 10:05:01;;;;;;;5.47;1.48;;;12.60;39.70;;;;;;5094724;28;20020;-36
2021/04/13 10:07:39;;;;;;;2.60;1.00;;;10.30;43.50;;;;;;5095689;28;20023;-37
2021/04/13 10:10:12;;;;;;;5.53;1.05;;;9.60;43.00;;;;;;5094173;28;20031;-37
2021/04/13 10:12:46;;;;;;;3.45;1.25;;;9.10;44.00;;;;;;5095478;28;20039;-36
2021/04/13 10:15:50;;;;;;;4.68;1.48;;;10.50;42.00;;;;;;5094793;28;20024;-37
2021/04/13 10:18:37;;;;;;;5.13;1.48;;;12.40;39.10;;;;;;5095453;28;20365;-37
2021/04/13 10:21:30;;;;;;;9.02;1.50;;;13.70;36.60;;;;;;5095500;28;20043;-36
2021/04/13 10:24:20;;;;;;;4.78;1.20;;;13.20;37.00;;;;;;5095371;28;20452;-37
2021/04/13 10:27:21;;;;;;;6.93;1.83;;;14.10;34.70;;;;;;5095752;28;20385;-38
2021/04/13 10:30:14;;;;;;;6.38;1.35;;;14.20;35.40;;;;;;5095729;28;20336;-37
2021/04/13 10:32:55;;;;;;;5.10;1.70;;;12.30;38.40;;;;;;5095655;28;20020;-37
2021/04/13 10:35:39;;;;;;;9.93;1.70;;;12.10;39.50;;;;;;5095798;28;20020;-36
2021/04/13 10:38:26;;;;;;;12.57;1.88;;;13.00;38.30;;;;;;5095359;28;20157;-42
2021/04/13 10:40:58;;;;;;;12.38;2.47;;;10.90;42.60;;;;;;5095493;28;20028;-37
2021/04/13 10:44:00;;;;;;;1.88;0.98;;;10.50;43.00;;;;;;5095312;28;20020;-38
2021/04/13 10:46:36;;;;;;;4.45;1.15;;;11.50;37.40;;;;;;5094935;28;20028;-37
2021/04/13 10:49:51;;;;;;;5.85;1.35;;;12.20;34.20;;;;;;5093557;28;20040;-38
2021/04/13 10:52:36;;;;;;;4.60;2.28;;;12.40;33.80;;;;;;5095354;28;20036;-37
2021/04/13 10:55:28;;;;;;;3.70;1.02;;;13.30;33.60;;;;;;5093800;28;20107;-37
2021/04/13 10:58:25;;;;;;;5.97;1.50;;;12.90;32.40;;;;;;5095344;28;20058;-37
2021/04/13 11:01:20;;;;;;;3.88;1.20;;;13.30;33.30;;;;;;5094955;28;20388;-36
2021/04/13 11:04:16;;;;;;;5.00;1.05;;;13.30;32.90;;;;;;5095055;28;20046;-37
2021/04/13 11:07:06;;;;;;;3.90;1.25;;;13.80;31.70;;;;;;5095137;28;20027;-38
2021/04/13 11:09:50;;;;;;;8.23;1.10;;;12.40;32.60;;;;;;5094823;28;20072;-37
2021/04/13 11:12:16;;;;;;;7.13;1.65;;;11.70;32.60;;;;;;5094860;28;20047;-39
2021/04/13 11:15:19;;;;;;;2.85;0.68;;;10.60;35.20;;;;;;5092820;28;20476;-37
2021/04/13 11:18:14;;;;;;;7.45;1.42;;;11.30;33.60;;;;;;5094902;28;20087;-38
2021/04/13 11:21:08;;;;;;;10.13;1.38;;;11.80;33.60;;;;;;5094553;28;20036;-38
2021/04/13 11:24:07;;;;;;;3.95;1.10;;;13.10;31.10;;;;;;5093179;28;20031;-38
2021/04/13 11:27:11;;;;;;;3.60;0.95;;;13.90;30.10;;;;;;5094361;28;20024;-38
2021/04/13 11:30:14;;;;;;;4.55;1.33;;;14.00;29.30;;;;;;5094518;28;20035;-37
2021/04/13 11:33:17;;;;;;;5.55;1.48;;;13.00;32.20;;;;;;5094350;28;20055;-38
2021/04/13 11:36:04;;;;;;;5.35;1.38;;;12.60;33.00;;;;;;5094202;28;20035;-38
2021/04/13 11:38:51;;;;;;;6.18;1.35;;;13.30;31.00;;;;;;5094598;28;20035;-38
2021/04/13 11:41:29;;;;;;;2.42;0.90;;;14.00;26.70;;;;;;5094288;28;20024;-36
2021/04/13 11:44:05;;;;;;;4.20;1.33;;;13.10;29.40;;;;;;5094172;28;20422;-37
2021/04/13 11:46:47;;;;;;;7.32;2.13;;;13.70;28.70;;;;;;5093867;28;20021;-37
2021/04/13 11:49:20;;;;;;;4.13;1.10;;;13.30;30.80;;;;;;5093843;28;20474;-37
2021/04/13 11:51:57;;;;;;;6.57;1.05;;;14.50;28.80;;;;;;5094164;28;20040;-36
2021/04/13 11:54:44;;;;;;;2.63;1.10;;;14.20;29.00;;;;;;5094034;28;20024;-37
2021/04/13 11:57:25;;;;;;;3.95;0.85;;;15.30;27.70;;;;;;5093623;28;20384;-38
2021/04/13 12:00:09;;;;;;;5.22;0.85;;;15.20;27.30;;;;;;5094249;28;20013;-38
2021/04/13 12:02:43;;;;;;;6.45;1.40;;;13.20;30.80;;;;;;5093917;28;20493;-38
2021/04/13 12:05:33;;;;;;;1.50;0.70;;;11.20;34.20;;;;;;5094581;28;20024;-39
2021/04/13 12:08:00;;;;;;;9.15;0.88;;;10.60;36.20;;;;;;5093519;28;20140;-37
2021/04/13 12:10:31;;;;;;;4.63;1.60;;;10.60;36.60;;;;;;5093555;28;20062;-37
2021/04/13 12:12:58;;;;;;;3.10;1.15;;;10.70;36.10;;;;;;5093595;28;20012;-39
2021/04/13 12:15:24;;;;;;;2.03;1.00;;;10.40;35.80;;;;;;5093541;28;20021;-38
2021/04/13 12:17:50;;;;;;;2.30;1.05;;;10.70;34.80;;;;;;5093498;28;20107;-38
2021/04/13 12:20:33;;;;;;;2.20;0.70;;;10.50;34.70;;;;;;5092943;28;20144;-38
2021/04/13 12:23:04;;;;;;;3.35;1.45;;;10.60;32.80;;;;;;5092064;28;20499;-38
2021/04/13 12:25:53;;;;;;;2.15;0.63;;;11.10;32.20;;;;;;5093383;28;20020;-39
2021/04/13 12:28:33;;;;;;;8.05;1.10;;;12.30;31.00;;;;;;5093656;28;20106;-37
2021/04/13 12:31:05;;;;;;;2.28;1.23;;;12.60;29.90;;;;;;5093761;28;20099;-37
2021/04/13 12:33:30;;;;;;;1.55;0.85;;;14.30;28.70;;;;;;5093283;28;20028;-37
2021/04/13 12:36:04;;;;;;;5.75;1.08;;;14.50;28.60;;;;;;5093226;28;20374;-37
2021/04/13 12:38:42;;;;;;;3.05;0.90;;;15.00;27.80;;;;;;5093233;28;20468;-37
2021/04/13 12:41:10;;;;;;;0.80;0.50;;;15.40;25.70;;;;;;5092843;28;20081;-37
2021/04/13 12:43:59;;;;;;;1.85;0.82;;;13.70;26.00;;;;;;5092983;28;20032;-37
2021/04/13 12:46:38;;;;;;;5.82;1.20;;;13.80;26.70;;;;;;5094263;28;20160;-38
2021/04/13 12:49:12;;;;;;;5.10;0.77;;;14.00;26.80;;;;;;5091795;28;20052;-38
2021/04/13 12:51:56;;;;;;;3.38;0.90;;;14.00;25.90;;;;;;5092596;28;20020;-38
2021/04/13 12:54:29;;;;;;;2.90;0.70;;;14.50;26.50;;;;;;5091901;28;20050;-37
2021/04/13 12:57:07;;;;;;;3.33;0.95;;;13.00;28.70;;;;;;5092682;28;20016;-37
2021/04/13 12:59:34;;;;;;;3.78;1.13;;;12.40;30.00;;;;;;5092706;28;20058;-37
2021/04/13 13:02:00;;;;;;;4.00;0.80;;;11.40;31.60;;;;;;5091598;28;20028;-37
2021/04/13 13:04:36;;;;;;;1.55;1.00;;;10.80;33.90;;;;;;5092882;28;20028;-38
2021/04/13 13:07:03;;;;;;;2.22;0.88;;;10.70;34.30;;;;;;5092973;28;20080;-37
2021/04/13 13:09:31;;;;;;;4.80;0.82;;;11.00;33.20;;;;;;5092521;28;20024;-37
2021/04/13 13:12:06;;;;;;;1.88;0.73;;;10.30;35.00;;;;;;5093117;28;20020;-38
2021/04/13 13:14:37;;;;;;;4.90;1.42;;;10.40;35.10;;;;;;5093297;28;20107;-37
2021/04/13 13:17:04;;;;;;;3.83;1.30;;;10.30;33.30;;;;;;5092927;28;20020;-36
2021/04/13 13:19:43;;;;;;;2.33;0.73;;;10.20;33.20;;;;;;5092651;28;20020;-38
2021/04/13 13:22:19;;;;;;;1.20;0.80;;;10.90;30.60;;;;;;5092820;28;20020;-37
2021/04/13 13:24:49;;;;;;;5.50;1.05;;;11.70;30.10;;;;;;5074730;28;20028;-37
2021/04/13 13:27:25;;;;;;;1.50;1.00;;;11.80;29.70;;;;;;5092114;28;20039;-38
2021/04/13 13:29:51;;;;;;;1.92;0.90;;;12.20;29.00;;;;;;5092639;28;20456;-37
2021/04/13 13:32:21;;;;;;;2.08;0.73;;;11.80;30.20;;;;;;5092292;28;20039;-37
2021/04/13 13:34:49;;;;;;;3.78;1.15;;;12.00;29.40;;;;;;5091064;28;20039;-37
2021/04/13 13:37:16;;;;;;;2.88;0.82;;;11.30;31.40;;;;;;5090817;28;20024;-37